Lingxian, China
Current Conditions -  °F | °C
As of 8:00 AM on Wednesday 26 Nov 2014 (Local Time) from ZSJN Reporting Station
Haze Haze  
Wind Chill: 32°   Ceiling: Unl
Heat Index: 32°   Visibility: 1.7mi
Dew Point: 27°   Wind: 2mph
Humidity: 80%   Direction: NA
Pressure: 30.03"   Gusts: NA
Location:  37.33°N, 116.57°E
Report Text: ZSJN 260000Z VRB01MPS 2800 BR NSC M00/M03 Q1017 BECMG TL01303000
Loading
Personal Weather Stations






























Interactive Weather Map New forecast layout! Learn more

10-Day Weather Forecast

Advertisements
Track Severe Weather on mobile